sensor_id;sensor_type;location;lat;lon;timestamp;P1;durP1;ratioP1;P2;durP2;ratioP2
69985;SDS011;57328;52.054;5.294;2023-02-18T00:01:10;54.13;;;15.65;;
69985;SDS011;57328;52.054;5.294;2023-02-18T00:03:38;48.58;;;13.95;;
69985;SDS011;57328;52.054;5.294;2023-02-18T00:06:16;54.20;;;16.70;;
69985;SDS011;57328;52.054;5.294;2023-02-18T00:08:46;50.95;;;15.15;;
69985;SDS011;57328;52.054;5.294;2023-02-18T00:11:13;47.38;;;15.75;;
69985;SDS011;57328;52.054;5.294;2023-02-18T00:13:48;52.75;;;15.55;;
69985;SDS011;57328;52.054;5.294;2023-02-18T00:16:15;58.28;;;16.00;;
69985;SDS011;57328;52.054;5.294;2023-02-18T00:18:43;62.22;;;16.23;;
69985;SDS011;57328;52.054;5.294;2023-02-18T00:21:10;57.47;;;15.75;;
69985;SDS011;57328;52.054;5.294;2023-02-18T00:23:37;63.80;;;15.68;;
69985;SDS011;57328;52.054;5.294;2023-02-18T00:26:12;66.32;;;16.52;;
69985;SDS011;57328;52.054;5.294;2023-02-18T00:28:39;66.95;;;15.23;;
69985;SDS011;57328;52.054;5.294;2023-02-18T00:31:14;61.85;;;15.80;;
69985;SDS011;57328;52.054;5.294;2023-02-18T00:36:11;47.28;;;14.55;;
69985;SDS011;57328;52.054;5.294;2023-02-18T00:38:38;43.50;;;11.55;;
69985;SDS011;57328;52.054;5.294;2023-02-18T00:41:06;51.42;;;13.82;;
69985;SDS011;57328;52.054;5.294;2023-02-18T00:43:33;51.08;;;13.63;;
69985;SDS011;57328;52.054;5.294;2023-02-18T00:46:00;53.95;;;12.98;;
69985;SDS011;57328;52.054;5.294;2023-02-18T00:48:27;45.67;;;13.25;;
69985;SDS011;57328;52.054;5.294;2023-02-18T00:50:54;54.75;;;13.45;;
69985;SDS011;57328;52.054;5.294;2023-02-18T00:53:22;42.97;;;13.00;;
69985;SDS011;57328;52.054;5.294;2023-02-18T00:55:49;58.55;;;14.43;;
69985;SDS011;57328;52.054;5.294;2023-02-18T00:58:17;42.30;;;12.52;;
69985;SDS011;57328;52.054;5.294;2023-02-18T01:00:44;50.42;;;12.85;;
69985;SDS011;57328;52.054;5.294;2023-02-18T01:03:11;47.92;;;13.10;;
69985;SDS011;57328;52.054;5.294;2023-02-18T01:05:39;49.38;;;12.23;;
69985;SDS011;57328;52.054;5.294;2023-02-18T01:08:07;48.00;;;12.52;;
69985;SDS011;57328;52.054;5.294;2023-02-18T01:10:35;50.92;;;12.52;;
69985;SDS011;57328;52.054;5.294;2023-02-18T01:13:03;42.08;;;12.07;;
69985;SDS011;57328;52.054;5.294;2023-02-18T01:15:30;42.38;;;11.85;;
69985;SDS011;57328;52.054;5.294;2023-02-18T01:17:57;42.53;;;12.50;;
69985;SDS011;57328;52.054;5.294;2023-02-18T01:20:24;37.08;;;10.98;;
69985;SDS011;57328;52.054;5.294;2023-02-18T01:22:52;34.75;;;10.80;;
69985;SDS011;57328;52.054;5.294;2023-02-18T01:25:19;41.30;;;11.07;;
69985;SDS011;57328;52.054;5.294;2023-02-18T01:27:46;40.92;;;11.57;;
69985;SDS011;57328;52.054;5.294;2023-02-18T01:30:15;37.72;;;9.70;;
69985;SDS011;57328;52.054;5.294;2023-02-18T01:32:42;42.92;;;11.15;;
69985;SDS011;57328;52.054;5.294;2023-02-18T01:35:11;38.75;;;10.98;;
69985;SDS011;57328;52.054;5.294;2023-02-18T01:37:38;43.80;;;12.35;;
69985;SDS011;57328;52.054;5.294;2023-02-18T01:40:06;49.20;;;11.52;;
69985;SDS011;57328;52.054;5.294;2023-02-18T01:42:33;45.50;;;10.82;;
69985;SDS011;57328;52.054;5.294;2023-02-18T01:47:47;47.95;;;12.35;;
69985;SDS011;57328;52.054;5.294;2023-02-18T01:50:14;48.67;;;11.48;;
69985;SDS011;57328;52.054;5.294;2023-02-18T01:52:41;50.20;;;12.25;;
69985;SDS011;57328;52.054;5.294;2023-02-18T01:55:08;56.45;;;12.38;;
69985;SDS011;57328;52.054;5.294;2023-02-18T01:57:35;57.05;;;12.90;;
69985;SDS011;57328;52.054;5.294;2023-02-18T02:00:08;59.10;;;13.60;;
69985;SDS011;57328;52.054;5.294;2023-02-18T02:02:38;57.72;;;14.32;;
69985;SDS011;57328;52.054;5.294;2023-02-18T02:05:06;62.38;;;13.77;;
69985;SDS011;57328;52.054;5.294;2023-02-18T02:07:34;56.45;;;12.82;;
69985;SDS011;57328;52.054;5.294;2023-02-18T02:10:03;63.50;;;14.45;;
69985;SDS011;57328;52.054;5.294;2023-02-18T02:18:04;55.65;;;14.70;;
69985;SDS011;57328;52.054;5.294;2023-02-18T02:23:31;60.35;;;15.23;;
69985;SDS011;57328;52.054;5.294;2023-02-18T02:34:28;56.35;;;14.30;;
69985;SDS011;57328;52.054;5.294;2023-02-18T02:37:01;64.97;;;14.23;;
69985;SDS011;57328;52.054;5.294;2023-02-18T02:39:41;62.03;;;13.70;;
69985;SDS011;57328;52.054;5.294;2023-02-18T02:47:10;56.42;;;14.63;;
69985;SDS011;57328;52.054;5.294;2023-02-18T02:49:46;60.60;;;14.30;;
69985;SDS011;57328;52.054;5.294;2023-02-18T02:52:16;58.30;;;14.52;;
69985;SDS011;57328;52.054;5.294;2023-02-18T02:54:46;55.17;;;14.00;;
69985;SDS011;57328;52.054;5.294;2023-02-18T02:59:48;51.63;;;13.20;;
69985;SDS011;57328;52.054;5.294;2023-02-18T03:02:40;49.25;;;13.50;;
69985;SDS011;57328;52.054;5.294;2023-02-18T03:05:14;51.70;;;13.55;;
69985;SDS011;57328;52.054;5.294;2023-02-18T03:10:41;43.60;;;11.77;;
69985;SDS011;57328;52.054;5.294;2023-02-18T03:15:45;42.38;;;12.35;;
69985;SDS011;57328;52.054;5.294;2023-02-18T03:21:08;51.40;;;12.40;;
69985;SDS011;57328;52.054;5.294;2023-02-18T03:23:37;43.75;;;11.80;;
69985;SDS011;57328;52.054;5.294;2023-02-18T03:26:08;41.70;;;11.45;;
69985;SDS011;57328;52.054;5.294;2023-02-18T03:31:11;34.60;;;9.23;;
69985;SDS011;57328;52.054;5.294;2023-02-18T03:33:42;25.05;;;7.13;;
69985;SDS011;57328;52.054;5.294;2023-02-18T03:36:11;24.52;;;6.70;;
69985;SDS011;57328;52.054;5.294;2023-02-18T03:38:41;26.85;;;6.70;;
69985;SDS011;57328;52.054;5.294;2023-02-18T03:41:09;24.05;;;6.57;;
69985;SDS011;57328;52.054;5.294;2023-02-18T03:43:37;23.50;;;6.47;;
69985;SDS011;57328;52.054;5.294;2023-02-18T03:46:06;23.27;;;6.43;;
69985;SDS011;57328;52.054;5.294;2023-02-18T03:48:34;22.85;;;5.97;;
69985;SDS011;57328;52.054;5.294;2023-02-18T03:51:02;21.38;;;6.22;;
69985;SDS011;57328;52.054;5.294;2023-02-18T03:53:29;19.77;;;5.78;;
69985;SDS011;57328;52.054;5.294;2023-02-18T03:55:56;18.80;;;5.55;;
69985;SDS011;57328;52.054;5.294;2023-02-18T03:58:23;17.60;;;5.10;;
69985;SDS011;57328;52.054;5.294;2023-02-18T04:00:50;17.58;;;5.38;;
69985;SDS011;57328;52.054;5.294;2023-02-18T04:03:18;15.75;;;5.00;;
69985;SDS011;57328;52.054;5.294;2023-02-18T04:05:45;15.93;;;4.70;;
69985;SDS011;57328;52.054;5.294;2023-02-18T04:08:13;13.57;;;4.20;;
69985;SDS011;57328;52.054;5.294;2023-02-18T04:10:40;15.57;;;4.72;;
69985;SDS011;57328;52.054;5.294;2023-02-18T04:13:07;14.73;;;4.32;;
69985;SDS011;57328;52.054;5.294;2023-02-18T04:15:34;12.85;;;4.43;;
69985;SDS011;57328;52.054;5.294;2023-02-18T04:18:02;12.63;;;3.97;;
69985;SDS011;57328;52.054;5.294;2023-02-18T04:20:29;12.13;;;4.47;;
69985;SDS011;57328;52.054;5.294;2023-02-18T04:22:57;13.57;;;3.90;;
69985;SDS011;57328;52.054;5.294;2023-02-18T04:25:24;10.50;;;3.53;;
69985;SDS011;57328;52.054;5.294;2023-02-18T04:27:51;11.10;;;3.70;;
69985;SDS011;57328;52.054;5.294;2023-02-18T04:30:18;10.55;;;3.70;;
69985;SDS011;57328;52.054;5.294;2023-02-18T04:32:46;13.77;;;4.43;;
69985;SDS011;57328;52.054;5.294;2023-02-18T04:35:14;11.23;;;3.75;;
69985;SDS011;57328;52.054;5.294;2023-02-18T04:37:41;11.50;;;3.90;;
69985;SDS011;57328;52.054;5.294;2023-02-18T04:40:09;10.70;;;4.00;;
69985;SDS011;57328;52.054;5.294;2023-02-18T04:42:36;9.73;;;3.50;;
69985;SDS011;57328;52.054;5.294;2023-02-18T04:45:03;8.75;;;3.35;;
69985;SDS011;57328;52.054;5.294;2023-02-18T04:47:31;9.00;;;2.83;;
69985;SDS011;57328;52.054;5.294;2023-02-18T04:49:58;9.90;;;3.65;;
69985;SDS011;57328;52.054;5.294;2023-02-18T04:52:26;9.85;;;3.60;;
69985;SDS011;57328;52.054;5.294;2023-02-18T04:54:53;11.45;;;3.17;;
69985;SDS011;57328;52.054;5.294;2023-02-18T04:57:20;10.43;;;2.97;;
69985;SDS011;57328;52.054;5.294;2023-02-18T04:59:47;10.88;;;3.70;;
69985;SDS011;57328;52.054;5.294;2023-02-18T05:02:14;9.90;;;3.53;;
69985;SDS011;57328;52.054;5.294;2023-02-18T05:04:42;10.93;;;4.03;;
69985;SDS011;57328;52.054;5.294;2023-02-18T05:07:09;11.75;;;3.80;;
69985;SDS011;57328;52.054;5.294;2023-02-18T05:09:36;8.77;;;3.45;;
69985;SDS011;57328;52.054;5.294;2023-02-18T05:12:04;8.15;;;2.90;;
69985;SDS011;57328;52.054;5.294;2023-02-18T05:14:31;13.10;;;4.03;;
69985;SDS011;57328;52.054;5.294;2023-02-18T05:16:59;11.77;;;3.70;;
69985;SDS011;57328;52.054;5.294;2023-02-18T05:19:26;12.32;;;4.38;;
69985;SDS011;57328;52.054;5.294;2023-02-18T05:21:53;11.43;;;4.13;;
69985;SDS011;57328;52.054;5.294;2023-02-18T05:24:21;13.95;;;4.43;;
69985;SDS011;57328;52.054;5.294;2023-02-18T05:26:48;11.88;;;3.88;;
69985;SDS011;57328;52.054;5.294;2023-02-18T05:29:15;14.65;;;5.05;;
69985;SDS011;57328;52.054;5.294;2023-02-18T05:31:44;17.35;;;5.45;;
69985;SDS011;57328;52.054;5.294;2023-02-18T05:34:11;16.00;;;5.40;;
69985;SDS011;57328;52.054;5.294;2023-02-18T05:36:39;18.20;;;6.10;;
69985;SDS011;57328;52.054;5.294;2023-02-18T05:39:06;17.38;;;5.20;;
69985;SDS011;57328;52.054;5.294;2023-02-18T05:41:33;20.38;;;6.85;;
69985;SDS011;57328;52.054;5.294;2023-02-18T05:44:00;17.15;;;6.10;;
69985;SDS011;57328;52.054;5.294;2023-02-18T05:46:46;15.77;;;5.88;;
69985;SDS011;57328;52.054;5.294;2023-02-18T05:49:14;15.10;;;5.38;;
69985;SDS011;57328;52.054;5.294;2023-02-18T05:51:41;14.18;;;5.25;;
69985;SDS011;57328;52.054;5.294;2023-02-18T05:54:08;12.70;;;4.35;;
69985;SDS011;57328;52.054;5.294;2023-02-18T05:56:35;13.68;;;5.10;;
69985;SDS011;57328;52.054;5.294;2023-02-18T05:59:02;13.73;;;4.72;;
69985;SDS011;57328;52.054;5.294;2023-02-18T06:01:32;14.48;;;4.93;;
69985;SDS011;57328;52.054;5.294;2023-02-18T06:03:59;12.55;;;4.10;;
69985;SDS011;57328;52.054;5.294;2023-02-18T06:06:26;14.18;;;5.78;;
69985;SDS011;57328;52.054;5.294;2023-02-18T06:08:53;17.33;;;6.22;;
69985;SDS011;57328;52.054;5.294;2023-02-18T06:11:21;15.55;;;5.93;;
69985;SDS011;57328;52.054;5.294;2023-02-18T06:13:48;15.73;;;6.72;;
69985;SDS011;57328;52.054;5.294;2023-02-18T06:16:15;22.13;;;8.00;;
69985;SDS011;57328;52.054;5.294;2023-02-18T06:18:42;22.77;;;7.78;;
69985;SDS011;57328;52.054;5.294;2023-02-18T06:21:09;28.83;;;8.13;;
69985;SDS011;57328;52.054;5.294;2023-02-18T06:23:37;21.17;;;7.30;;
69985;SDS011;57328;52.054;5.294;2023-02-18T06:26:04;20.23;;;5.90;;
69985;SDS011;57328;52.054;5.294;2023-02-18T06:28:32;21.10;;;6.18;;
69985;SDS011;57328;52.054;5.294;2023-02-18T06:30:59;20.95;;;7.28;;
69985;SDS011;57328;52.054;5.294;2023-02-18T06:33:26;18.98;;;5.93;;
69985;SDS011;57328;52.054;5.294;2023-02-18T06:35:57;19.65;;;6.45;;
69985;SDS011;57328;52.054;5.294;2023-02-18T06:38:25;20.63;;;6.93;;
69985;SDS011;57328;52.054;5.294;2023-02-18T06:40:53;25.67;;;6.80;;
69985;SDS011;57328;52.054;5.294;2023-02-18T06:43:20;18.80;;;6.20;;
69985;SDS011;57328;52.054;5.294;2023-02-18T06:45:47;19.67;;;6.85;;
69985;SDS011;57328;52.054;5.294;2023-02-18T06:48:15;20.83;;;6.82;;
69985;SDS011;57328;52.054;5.294;2023-02-18T06:50:42;21.42;;;6.88;;
69985;SDS011;57328;52.054;5.294;2023-02-18T06:53:10;23.95;;;7.13;;
69985;SDS011;57328;52.054;5.294;2023-02-18T06:55:38;24.83;;;7.40;;
69985;SDS011;57328;52.054;5.294;2023-02-18T06:58:08;25.80;;;7.20;;
69985;SDS011;57328;52.054;5.294;2023-02-18T07:00:35;27.52;;;6.65;;
69985;SDS011;57328;52.054;5.294;2023-02-18T07:03:03;25.15;;;8.20;;
69985;SDS011;57328;52.054;5.294;2023-02-18T07:05:30;24.08;;;7.28;;
69985;SDS011;57328;52.054;5.294;2023-02-18T07:07:57;34.15;;;8.82;;
69985;SDS011;57328;52.054;5.294;2023-02-18T07:10:24;27.55;;;8.77;;
69985;SDS011;57328;52.054;5.294;2023-02-18T07:12:51;26.70;;;7.57;;
69985;SDS011;57328;52.054;5.294;2023-02-18T07:15:19;21.23;;;7.43;;
69985;SDS011;57328;52.054;5.294;2023-02-18T07:17:50;24.23;;;7.88;;
69985;SDS011;57328;52.054;5.294;2023-02-18T07:20:17;25.20;;;8.25;;
69985;SDS011;57328;52.054;5.294;2023-02-18T07:22:45;18.27;;;6.13;;
69985;SDS011;57328;52.054;5.294;2023-02-18T07:25:12;20.10;;;6.55;;
69985;SDS011;57328;52.054;5.294;2023-02-18T07:27:39;19.45;;;5.72;;
69985;SDS011;57328;52.054;5.294;2023-02-18T07:30:07;23.40;;;7.30;;
69985;SDS011;57328;52.054;5.294;2023-02-18T07:32:34;23.83;;;7.38;;
69985;SDS011;57328;52.054;5.294;2023-02-18T07:35:02;27.70;;;7.22;;
69985;SDS011;57328;52.054;5.294;2023-02-18T07:37:30;29.60;;;7.85;;
69985;SDS011;57328;52.054;5.294;2023-02-18T07:39:57;23.17;;;6.65;;
69985;SDS011;57328;52.054;5.294;2023-02-18T07:42:24;21.13;;;5.40;;
69985;SDS011;57328;52.054;5.294;2023-02-18T07:44:52;19.75;;;6.40;;
69985;SDS011;57328;52.054;5.294;2023-02-18T07:47:19;23.48;;;6.57;;
69985;SDS011;57328;52.054;5.294;2023-02-18T07:49:46;19.98;;;5.47;;
69985;SDS011;57328;52.054;5.294;2023-02-18T07:52:14;24.88;;;6.03;;
69985;SDS011;57328;52.054;5.294;2023-02-18T07:54:41;23.75;;;6.30;;
69985;SDS011;57328;52.054;5.294;2023-02-18T07:57:08;27.13;;;5.72;;
69985;SDS011;57328;52.054;5.294;2023-02-18T07:59:35;24.55;;;5.20;;
69985;SDS011;57328;52.054;5.294;2023-02-18T08:02:03;17.98;;;4.00;;
69985;SDS011;57328;52.054;5.294;2023-02-18T08:04:30;21.85;;;4.53;;
69985;SDS011;57328;52.054;5.294;2023-02-18T08:06:58;15.35;;;3.55;;
69985;SDS011;57328;52.054;5.294;2023-02-18T08:09:25;21.27;;;3.90;;
69985;SDS011;57328;52.054;5.294;2023-02-18T08:11:52;13.85;;;2.63;;
69985;SDS011;57328;52.054;5.294;2023-02-18T08:14:20;16.27;;;3.17;;
69985;SDS011;57328;52.054;5.294;2023-02-18T08:16:47;21.92;;;2.80;;
69985;SDS011;57328;52.054;5.294;2023-02-18T08:19:14;15.55;;;2.90;;
69985;SDS011;57328;52.054;5.294;2023-02-18T08:21:41;18.25;;;2.88;;
69985;SDS011;57328;52.054;5.294;2023-02-18T08:24:09;20.52;;;2.20;;
69985;SDS011;57328;52.054;5.294;2023-02-18T08:26:36;14.50;;;2.25;;
69985;SDS011;57328;52.054;5.294;2023-02-18T08:29:07;18.13;;;2.53;;
69985;SDS011;57328;52.054;5.294;2023-02-18T08:31:34;20.90;;;2.70;;
69985;SDS011;57328;52.054;5.294;2023-02-18T08:34:02;13.15;;;1.90;;
69985;SDS011;57328;52.054;5.294;2023-02-18T08:36:29;13.20;;;1.83;;
69985;SDS011;57328;52.054;5.294;2023-02-18T08:38:56;13.25;;;2.22;;
69985;SDS011;57328;52.054;5.294;2023-02-18T08:41:24;14.23;;;2.33;;
69985;SDS011;57328;52.054;5.294;2023-02-18T08:43:51;16.45;;;2.03;;
69985;SDS011;57328;52.054;5.294;2023-02-18T08:46:18;19.63;;;2.10;;
69985;SDS011;57328;52.054;5.294;2023-02-18T08:49:00;18.98;;;2.25;;
69985;SDS011;57328;52.054;5.294;2023-02-18T08:51:27;19.63;;;2.13;;
69985;SDS011;57328;52.054;5.294;2023-02-18T08:53:55;18.33;;;2.05;;
69985;SDS011;57328;52.054;5.294;2023-02-18T08:56:22;17.27;;;2.35;;
69985;SDS011;57328;52.054;5.294;2023-02-18T08:58:49;15.88;;;2.38;;
69985;SDS011;57328;52.054;5.294;2023-02-18T09:01:19;14.45;;;1.88;;
69985;SDS011;57328;52.054;5.294;2023-02-18T09:03:47;17.65;;;2.03;;
69985;SDS011;57328;52.054;5.294;2023-02-18T09:06:14;17.50;;;2.15;;
69985;SDS011;57328;52.054;5.294;2023-02-18T09:08:42;12.68;;;2.13;;
69985;SDS011;57328;52.054;5.294;2023-02-18T09:11:09;12.95;;;1.67;;
69985;SDS011;57328;52.054;5.294;2023-02-18T09:13:37;12.77;;;2.40;;
69985;SDS011;57328;52.054;5.294;2023-02-18T09:16:09;12.40;;;1.55;;
69985;SDS011;57328;52.054;5.294;2023-02-18T09:18:37;16.80;;;2.63;;
69985;SDS011;57328;52.054;5.294;2023-02-18T09:21:05;10.50;;;2.08;;
69985;SDS011;57328;52.054;5.294;2023-02-18T09:23:33;9.70;;;1.50;;
69985;SDS011;57328;52.054;5.294;2023-02-18T09:26:03;20.10;;;2.40;;
69985;SDS011;57328;52.054;5.294;2023-02-18T09:28:30;16.52;;;1.95;;
69985;SDS011;57328;52.054;5.294;2023-02-18T09:31:02;21.92;;;2.55;;
69985;SDS011;57328;52.054;5.294;2023-02-18T09:33:29;11.52;;;1.98;;
69985;SDS011;57328;52.054;5.294;2023-02-18T09:35:56;17.30;;;3.00;;
69985;SDS011;57328;52.054;5.294;2023-02-18T09:38:23;17.05;;;1.83;;
69985;SDS011;57328;52.054;5.294;2023-02-18T09:40:51;12.35;;;2.33;;
69985;SDS011;57328;52.054;5.294;2023-02-18T09:45:50;15.15;;;2.35;;
69985;SDS011;57328;52.054;5.294;2023-02-18T09:48:17;15.38;;;2.28;;
69985;SDS011;57328;52.054;5.294;2023-02-18T09:50:46;14.15;;;3.15;;
69985;SDS011;57328;52.054;5.294;2023-02-18T09:53:14;14.68;;;3.13;;
69985;SDS011;57328;52.054;5.294;2023-02-18T09:55:41;13.93;;;2.35;;
69985;SDS011;57328;52.054;5.294;2023-02-18T09:58:15;14.98;;;2.78;;
69985;SDS011;57328;52.054;5.294;2023-02-18T10:00:44;13.68;;;2.63;;
69985;SDS011;57328;52.054;5.294;2023-02-18T10:03:18;13.75;;;3.03;;
69985;SDS011;57328;52.054;5.294;2023-02-18T10:05:52;17.08;;;2.83;;
69985;SDS011;57328;52.054;5.294;2023-02-18T10:08:25;11.60;;;2.72;;
69985;SDS011;57328;52.054;5.294;2023-02-18T10:10:53;15.65;;;2.40;;
69985;SDS011;57328;52.054;5.294;2023-02-18T10:13:22;11.57;;;2.40;;
69985;SDS011;57328;52.054;5.294;2023-02-18T10:15:50;15.40;;;2.50;;
69985;SDS011;57328;52.054;5.294;2023-02-18T10:18:28;13.27;;;2.00;;
69985;SDS011;57328;52.054;5.294;2023-02-18T10:21:11;17.65;;;2.58;;
69985;SDS011;57328;52.054;5.294;2023-02-18T10:23:40;15.48;;;3.08;;
69985;SDS011;57328;52.054;5.294;2023-02-18T10:26:11;14.80;;;2.88;;
69985;SDS011;57328;52.054;5.294;2023-02-18T10:28:40;12.10;;;2.33;;
69985;SDS011;57328;52.054;5.294;2023-02-18T10:31:08;12.23;;;2.03;;
69985;SDS011;57328;52.054;5.294;2023-02-18T10:33:45;13.70;;;2.35;;
69985;SDS011;57328;52.054;5.294;2023-02-18T10:38:44;13.88;;;2.25;;
69985;SDS011;57328;52.054;5.294;2023-02-18T10:41:18;16.13;;;1.85;;
69985;SDS011;57328;52.054;5.294;2023-02-18T10:46:46;14.68;;;1.92;;
69985;SDS011;57328;52.054;5.294;2023-02-18T10:54:46;14.70;;;2.85;;
69985;SDS011;57328;52.054;5.294;2023-02-18T10:57:21;16.02;;;2.40;;
69985;SDS011;57328;52.054;5.294;2023-02-18T11:02:23;15.45;;;2.35;;
69985;SDS011;57328;52.054;5.294;2023-02-18T11:07:20;13.55;;;2.30;;
69985;SDS011;57328;52.054;5.294;2023-02-18T11:09:48;15.70;;;2.30;;
69985;SDS011;57328;52.054;5.294;2023-02-18T11:12:17;17.90;;;2.30;;
69985;SDS011;57328;52.054;5.294;2023-02-18T11:14:46;14.82;;;2.30;;
69985;SDS011;57328;52.054;5.294;2023-02-18T11:19:42;17.20;;;2.50;;
69985;SDS011;57328;52.054;5.294;2023-02-18T11:22:20;11.75;;;2.20;;
69985;SDS011;57328;52.054;5.294;2023-02-18T11:24:47;12.90;;;2.03;;
69985;SDS011;57328;52.054;5.294;2023-02-18T11:29:47;13.25;;;2.15;;
69985;SDS011;57328;52.054;5.294;2023-02-18T11:32:16;13.52;;;2.22;;
69985;SDS011;57328;52.054;5.294;2023-02-18T11:34:44;13.48;;;2.25;;
69985;SDS011;57328;52.054;5.294;2023-02-18T11:37:15;13.85;;;2.53;;
69985;SDS011;57328;52.054;5.294;2023-02-18T11:39:46;11.82;;;2.00;;
69985;SDS011;57328;52.054;5.294;2023-02-18T11:42:18;12.52;;;2.20;;
69985;SDS011;57328;52.054;5.294;2023-02-18T11:44:50;8.18;;;1.70;;
69985;SDS011;57328;52.054;5.294;2023-02-18T11:49:58;15.82;;;2.35;;
69985;SDS011;57328;52.054;5.294;2023-02-18T11:52:26;14.88;;;3.20;;
69985;SDS011;57328;52.054;5.294;2023-02-18T11:57:41;14.30;;;3.00;;
69985;SDS011;57328;52.054;5.294;2023-02-18T12:00:18;14.43;;;2.97;;
69985;SDS011;57328;52.054;5.294;2023-02-18T12:02:47;10.20;;;2.17;;
69985;SDS011;57328;52.054;5.294;2023-02-18T12:05:20;10.48;;;2.67;;
69985;SDS011;57328;52.054;5.294;2023-02-18T12:08:03;12.43;;;2.22;;
69985;SDS011;57328;52.054;5.294;2023-02-18T12:10:33;11.48;;;3.30;;
69985;SDS011;57328;52.054;5.294;2023-02-18T12:13:03;12.48;;;2.50;;
69985;SDS011;57328;52.054;5.294;2023-02-18T12:18:26;16.73;;;2.55;;
69985;SDS011;57328;52.054;5.294;2023-02-18T12:23:40;11.27;;;2.25;;
69985;SDS011;57328;52.054;5.294;2023-02-18T12:29:23;15.00;;;2.20;;
69985;SDS011;57328;52.054;5.294;2023-02-18T12:32:05;13.55;;;1.70;;
69985;SDS011;57328;52.054;5.294;2023-02-18T12:34:38;6.32;;;1.40;;
69985;SDS011;57328;52.054;5.294;2023-02-18T12:37:32;7.50;;;1.50;;
69985;SDS011;57328;52.054;5.294;2023-02-18T12:42:57;14.20;;;1.90;;
69985;SDS011;57328;52.054;5.294;2023-02-18T12:53:37;4.18;;;1.10;;
69985;SDS011;57328;52.054;5.294;2023-02-18T13:01:36;9.85;;;1.67;;
69985;SDS011;57328;52.054;5.294;2023-02-18T13:06:46;11.55;;;1.60;;
69985;SDS011;57328;52.054;5.294;2023-02-18T13:09:37;11.50;;;1.77;;
69985;SDS011;57328;52.054;5.294;2023-02-18T13:17:01;10.95;;;1.88;;
69985;SDS011;57328;52.054;5.294;2023-02-18T13:19:32;8.65;;;1.92;;
69985;SDS011;57328;52.054;5.294;2023-02-18T13:22:01;9.45;;;2.00;;
69985;SDS011;57328;52.054;5.294;2023-02-18T13:24:32;8.68;;;1.65;;
69985;SDS011;57328;52.054;5.294;2023-02-18T13:27:02;7.57;;;1.60;;
69985;SDS011;57328;52.054;5.294;2023-02-18T13:29:33;11.43;;;2.30;;
69985;SDS011;57328;52.054;5.294;2023-02-18T13:40:02;9.20;;;1.90;;
69985;SDS011;57328;52.054;5.294;2023-02-18T13:58:02;10.02;;;2.45;;
69985;SDS011;57328;52.054;5.294;2023-02-18T14:00:35;6.78;;;1.75;;
69985;SDS011;57328;52.054;5.294;2023-02-18T14:03:20;11.63;;;1.83;;
69985;SDS011;57328;52.054;5.294;2023-02-18T14:05:47;10.25;;;2.25;;
69985;SDS011;57328;52.054;5.294;2023-02-18T14:08:36;10.73;;;1.90;;
69985;SDS011;57328;52.054;5.294;2023-02-18T14:13:39;10.30;;;2.03;;
69985;SDS011;57328;52.054;5.294;2023-02-18T14:16:07;7.72;;;1.70;;
69985;SDS011;57328;52.054;5.294;2023-02-18T14:23:40;9.77;;;1.98;;
69985;SDS011;57328;52.054;5.294;2023-02-18T14:33:40;10.68;;;2.15;;
69985;SDS011;57328;52.054;5.294;2023-02-18T14:36:12;11.70;;;2.22;;
69985;SDS011;57328;52.054;5.294;2023-02-18T14:38:47;11.05;;;1.98;;
69985;SDS011;57328;52.054;5.294;2023-02-18T14:41:21;9.10;;;2.22;;
69985;SDS011;57328;52.054;5.294;2023-02-18T14:49:50;11.15;;;2.25;;
69985;SDS011;57328;52.054;5.294;2023-02-18T14:54:46;7.78;;;1.60;;
69985;SDS011;57328;52.054;5.294;2023-02-18T14:57:17;7.78;;;1.52;;
69985;SDS011;57328;52.054;5.294;2023-02-18T14:59:47;6.60;;;1.50;;
69985;SDS011;57328;52.054;5.294;2023-02-18T15:02:19;7.95;;;1.75;;
69985;SDS011;57328;52.054;5.294;2023-02-18T15:04:47;8.95;;;1.77;;
69985;SDS011;57328;52.054;5.294;2023-02-18T15:07:17;6.15;;;1.80;;
69985;SDS011;57328;52.054;5.294;2023-02-18T15:09:49;8.93;;;1.90;;
69985;SDS011;57328;52.054;5.294;2023-02-18T15:12:19;8.27;;;1.90;;
69985;SDS011;57328;52.054;5.294;2023-02-18T15:14:51;9.60;;;2.45;;
69985;SDS011;57328;52.054;5.294;2023-02-18T15:17:19;10.45;;;2.55;;
69985;SDS011;57328;52.054;5.294;2023-02-18T15:19:51;13.63;;;3.20;;
69985;SDS011;57328;52.054;5.294;2023-02-18T15:22:33;10.98;;;2.78;;
69985;SDS011;57328;52.054;5.294;2023-02-18T15:25:03;8.93;;;2.88;;
69985;SDS011;57328;52.054;5.294;2023-02-18T15:27:44;9.02;;;2.88;;
69985;SDS011;57328;52.054;5.294;2023-02-18T15:30:19;11.80;;;3.00;;
69985;SDS011;57328;52.054;5.294;2023-02-18T15:32:52;13.57;;;2.72;;
69985;SDS011;57328;52.054;5.294;2023-02-18T15:35:20;13.73;;;3.40;;
69985;SDS011;57328;52.054;5.294;2023-02-18T15:37:52;12.07;;;2.92;;
69985;SDS011;57328;52.054;5.294;2023-02-18T15:40:21;12.88;;;3.53;;
69985;SDS011;57328;52.054;5.294;2023-02-18T15:42:49;15.10;;;3.53;;
69985;SDS011;57328;52.054;5.294;2023-02-18T15:47:45;15.80;;;4.45;;
69985;SDS011;57328;52.054;5.294;2023-02-18T15:57:35;14.90;;;3.60;;
69985;SDS011;57328;52.054;5.294;2023-02-18T16:00:13;14.60;;;2.88;;
69985;SDS011;57328;52.054;5.294;2023-02-18T16:02:54;13.30;;;3.55;;
69985;SDS011;57328;52.054;5.294;2023-02-18T16:05:26;10.27;;;2.95;;
69985;SDS011;57328;52.054;5.294;2023-02-18T16:07:58;16.30;;;3.53;;
69985;SDS011;57328;52.054;5.294;2023-02-18T16:13:01;12.07;;;3.55;;
69985;SDS011;57328;52.054;5.294;2023-02-18T16:15:30;9.98;;;3.63;;
69985;SDS011;57328;52.054;5.294;2023-02-18T16:17:58;16.30;;;3.53;;
69985;SDS011;57328;52.054;5.294;2023-02-18T16:20:51;13.15;;;3.90;;
69985;SDS011;57328;52.054;5.294;2023-02-18T16:23:15;16.77;;;5.07;;
69985;SDS011;57328;52.054;5.294;2023-02-18T16:25:44;13.43;;;3.92;;
69985;SDS011;57328;52.054;5.294;2023-02-18T16:30:39;9.82;;;3.45;;
69985;SDS011;57328;52.054;5.294;2023-02-18T16:33:06;18.17;;;3.35;;
69985;SDS011;57328;52.054;5.294;2023-02-18T16:35:34;13.93;;;3.45;;
69985;SDS011;57328;52.054;5.294;2023-02-18T16:38:21;16.20;;;4.10;;
69985;SDS011;57328;52.054;5.294;2023-02-18T16:40:50;14.02;;;3.80;;
69985;SDS011;57328;52.054;5.294;2023-02-18T16:43:20;13.13;;;3.22;;
69985;SDS011;57328;52.054;5.294;2023-02-18T16:46:07;12.30;;;3.30;;
69985;SDS011;57328;52.054;5.294;2023-02-18T16:48:36;16.83;;;3.83;;
69985;SDS011;57328;52.054;5.294;2023-02-18T16:51:16;15.93;;;3.75;;
69985;SDS011;57328;52.054;5.294;2023-02-18T16:53:44;13.35;;;3.67;;
69985;SDS011;57328;52.054;5.294;2023-02-18T16:56:12;14.98;;;3.90;;
69985;SDS011;57328;52.054;5.294;2023-02-18T16:58:40;10.57;;;3.38;;
69985;SDS011;57328;52.054;5.294;2023-02-18T17:01:10;19.33;;;5.68;;
69985;SDS011;57328;52.054;5.294;2023-02-18T17:03:41;21.77;;;5.53;;
69985;SDS011;57328;52.054;5.294;2023-02-18T17:06:09;18.02;;;5.20;;
69985;SDS011;57328;52.054;5.294;2023-02-18T17:08:36;19.75;;;4.53;;
69985;SDS011;57328;52.054;5.294;2023-02-18T17:11:04;15.05;;;4.22;;
69985;SDS011;57328;52.054;5.294;2023-02-18T17:13:31;21.23;;;3.88;;
69985;SDS011;57328;52.054;5.294;2023-02-18T17:15:58;19.65;;;4.47;;
69985;SDS011;57328;52.054;5.294;2023-02-18T17:18:25;20.75;;;6.10;;
69985;SDS011;57328;52.054;5.294;2023-02-18T17:20:53;18.67;;;6.05;;
69985;SDS011;57328;52.054;5.294;2023-02-18T17:23:22;14.82;;;4.43;;
69985;SDS011;57328;52.054;5.294;2023-02-18T17:25:50;19.60;;;5.35;;
69985;SDS011;57328;52.054;5.294;2023-02-18T17:28:18;15.43;;;4.22;;
69985;SDS011;57328;52.054;5.294;2023-02-18T17:30:55;17.90;;;4.15;;